Terminal Aerodrome Forecast
Issued by NWS

Home | Current Version | Previous Version | Text Only | Print | Product List | Glossary On
Versions: 1 2 3 4 5 6 7 8 9 10 11 12 13 14
824
FTUS45 KTFX 081135
TAFCTB
TAF
KCTB 081135Z 0812/0912 26020G31KT P6SM SCT100 BKN150
     FM090000 26011KT P6SM SCT150=

USA.gov is the U.S. government's official web portal to all federal, state and local government web resources and services.